sensor_id;sensor_type;location;lat;lon;timestamp;temperature;humidity
3678;DHT22;1855;50.934;6.958;2023-06-01T00:00:13;17.70;62.70
3678;DHT22;1855;50.934;6.958;2023-06-01T00:02:40;17.70;62.90
3678;DHT22;1855;50.934;6.958;2023-06-01T00:05:07;17.70;63.30
3678;DHT22;1855;50.934;6.958;2023-06-01T00:07:34;17.70;63.50
3678;DHT22;1855;50.934;6.958;2023-06-01T00:10:01;17.60;63.20
3678;DHT22;1855;50.934;6.958;2023-06-01T00:12:28;17.60;63.80
3678;DHT22;1855;50.934;6.958;2023-06-01T00:14:56;17.50;64.20
3678;DHT22;1855;50.934;6.958;2023-06-01T00:17:23;17.50;64.80
3678;DHT22;1855;50.934;6.958;2023-06-01T00:19:49;17.40;64.40
3678;DHT22;1855;50.934;6.958;2023-06-01T00:22:18;17.40;65.30
3678;DHT22;1855;50.934;6.958;2023-06-01T00:24:45;17.40;65.70
3678;DHT22;1855;50.934;6.958;2023-06-01T00:27:12;17.30;65.90
3678;DHT22;1855;50.934;6.958;2023-06-01T00:29:38;17.30;66.60
3678;DHT22;1855;50.934;6.958;2023-06-01T00:32:07;17.30;67.10
3678;DHT22;1855;50.934;6.958;2023-06-01T00:34:33;17.30;67.70
3678;DHT22;1855;50.934;6.958;2023-06-01T00:37:00;17.30;67.70
3678;DHT22;1855;50.934;6.958;2023-06-01T00:39:27;17.20;67.90
3678;DHT22;1855;50.934;6.958;2023-06-01T00:41:54;17.30;68.40
3678;DHT22;1855;50.934;6.958;2023-06-01T00:44:20;17.20;67.90
3678;DHT22;1855;50.934;6.958;2023-06-01T00:46:47;17.20;68.20
3678;DHT22;1855;50.934;6.958;2023-06-01T00:49:17;17.20;68.70
3678;DHT22;1855;50.934;6.958;2023-06-01T00:51:44;17.10;69.20
3678;DHT22;1855;50.934;6.958;2023-06-01T00:54:12;17.10;68.90
3678;DHT22;1855;50.934;6.958;2023-06-01T00:56:38;17.10;69.70
3678;DHT22;1855;50.934;6.958;2023-06-01T00:59:05;17.10;69.40
3678;DHT22;1855;50.934;6.958;2023-06-01T01:01:32;17.00;69.50
3678;DHT22;1855;50.934;6.958;2023-06-01T01:03:59;16.90;69.70
3678;DHT22;1855;50.934;6.958;2023-06-01T01:06:34;16.90;70.70
3678;DHT22;1855;50.934;6.958;2023-06-01T01:09:14;16.90;70.40
3678;DHT22;1855;50.934;6.958;2023-06-01T01:11:49;16.80;70.40
3678;DHT22;1855;50.934;6.958;2023-06-01T01:14:22;16.80;71.20
3678;DHT22;1855;50.934;6.958;2023-06-01T01:16:54;16.80;70.70
3678;DHT22;1855;50.934;6.958;2023-06-01T01:19:35;16.70;72.10
3678;DHT22;1855;50.934;6.958;2023-06-01T01:22:18;16.70;71.50
3678;DHT22;1855;50.934;6.958;2023-06-01T01:25:05;16.70;72.10
3678;DHT22;1855;50.934;6.958;2023-06-01T01:27:39;16.60;72.20
3678;DHT22;1855;50.934;6.958;2023-06-01T01:30:13;16.60;72.60
3678;DHT22;1855;50.934;6.958;2023-06-01T01:32:41;16.60;72.60
3678;DHT22;1855;50.934;6.958;2023-06-01T01:35:09;16.50;72.90
3678;DHT22;1855;50.934;6.958;2023-06-01T01:37:37;16.50;73.20
3678;DHT22;1855;50.934;6.958;2023-06-01T01:40:05;16.50;73.50
3678;DHT22;1855;50.934;6.958;2023-06-01T01:42:31;16.50;73.80
3678;DHT22;1855;50.934;6.958;2023-06-01T01:44:58;16.40;73.90
3678;DHT22;1855;50.934;6.958;2023-06-01T01:47:31;16.40;74.20
3678;DHT22;1855;50.934;6.958;2023-06-01T01:50:04;16.40;74.60
3678;DHT22;1855;50.934;6.958;2023-06-01T01:52:34;16.40;74.70
3678;DHT22;1855;50.934;6.958;2023-06-01T01:55:04;16.40;75.00
3678;DHT22;1855;50.934;6.958;2023-06-01T01:57:32;16.30;75.00
3678;DHT22;1855;50.934;6.958;2023-06-01T02:00:00;16.30;75.50
3678;DHT22;1855;50.934;6.958;2023-06-01T02:02:29;16.30;76.30
3678;DHT22;1855;50.934;6.958;2023-06-01T02:04:56;16.30;75.80
3678;DHT22;1855;50.934;6.958;2023-06-01T02:07:22;16.30;75.70
3678;DHT22;1855;50.934;6.958;2023-06-01T02:09:49;16.20;76.40
3678;DHT22;1855;50.934;6.958;2023-06-01T02:12:16;16.20;76.40
3678;DHT22;1855;50.934;6.958;2023-06-01T02:14:42;16.20;76.90
3678;DHT22;1855;50.934;6.958;2023-06-01T02:17:09;16.20;76.90
3678;DHT22;1855;50.934;6.958;2023-06-01T02:19:37;16.10;76.90
3678;DHT22;1855;50.934;6.958;2023-06-01T02:22:04;16.10;77.30
3678;DHT22;1855;50.934;6.958;2023-06-01T02:24:31;16.10;77.50
3678;DHT22;1855;50.934;6.958;2023-06-01T02:26:58;16.10;77.90
3678;DHT22;1855;50.934;6.958;2023-06-01T02:29:25;16.00;77.60
3678;DHT22;1855;50.934;6.958;2023-06-01T02:31:52;16.00;78.20
3678;DHT22;1855;50.934;6.958;2023-06-01T02:34:19;16.00;78.60
3678;DHT22;1855;50.934;6.958;2023-06-01T02:36:47;16.00;78.50
3678;DHT22;1855;50.934;6.958;2023-06-01T02:39:14;15.90;79.10
3678;DHT22;1855;50.934;6.958;2023-06-01T02:41:41;15.90;79.40
3678;DHT22;1855;50.934;6.958;2023-06-01T02:44:08;15.80;79.40
3678;DHT22;1855;50.934;6.958;2023-06-01T02:46:34;15.80;79.70
3678;DHT22;1855;50.934;6.958;2023-06-01T02:49:01;15.70;79.80
3678;DHT22;1855;50.934;6.958;2023-06-01T02:51:29;15.70;80.00
3678;DHT22;1855;50.934;6.958;2023-06-01T02:53:58;15.70;80.30
3678;DHT22;1855;50.934;6.958;2023-06-01T02:56:25;15.70;80.40
3678;DHT22;1855;50.934;6.958;2023-06-01T02:58:52;15.70;80.40
3678;DHT22;1855;50.934;6.958;2023-06-01T03:01:18;15.60;80.60
3678;DHT22;1855;50.934;6.958;2023-06-01T03:03:46;15.50;80.90
3678;DHT22;1855;50.934;6.958;2023-06-01T03:06:13;15.50;81.00
3678;DHT22;1855;50.934;6.958;2023-06-01T03:08:43;15.50;80.70
3678;DHT22;1855;50.934;6.958;2023-06-01T03:11:11;15.50;80.60
3678;DHT22;1855;50.934;6.958;2023-06-01T03:13:37;15.50;80.90
3678;DHT22;1855;50.934;6.958;2023-06-01T03:16:04;15.40;81.30
3678;DHT22;1855;50.934;6.958;2023-06-01T03:18:31;15.40;81.50
3678;DHT22;1855;50.934;6.958;2023-06-01T03:20:58;15.30;81.80
3678;DHT22;1855;50.934;6.958;2023-06-01T03:23:24;15.30;82.00
3678;DHT22;1855;50.934;6.958;2023-06-01T03:25:51;15.30;82.10
3678;DHT22;1855;50.934;6.958;2023-06-01T03:28:20;15.30;82.40
3678;DHT22;1855;50.934;6.958;2023-06-01T03:30:47;15.20;82.50
3678;DHT22;1855;50.934;6.958;2023-06-01T03:33:13;15.30;82.80
3678;DHT22;1855;50.934;6.958;2023-06-01T03:35:40;15.20;83.20
3678;DHT22;1855;50.934;6.958;2023-06-01T03:38:07;15.20;83.40
3678;DHT22;1855;50.934;6.958;2023-06-01T03:40:33;15.10;83.50
3678;DHT22;1855;50.934;6.958;2023-06-01T03:43:00;15.10;83.80
3678;DHT22;1855;50.934;6.958;2023-06-01T03:45:29;15.10;84.00
3678;DHT22;1855;50.934;6.958;2023-06-01T03:47:55;15.10;84.50
3678;DHT22;1855;50.934;6.958;2023-06-01T03:50:22;15.00;84.90
3678;DHT22;1855;50.934;6.958;2023-06-01T03:52:49;15.00;85.30
3678;DHT22;1855;50.934;6.958;2023-06-01T03:55:16;15.00;85.60
3678;DHT22;1855;50.934;6.958;2023-06-01T03:57:43;15.00;86.30
3678;DHT22;1855;50.934;6.958;2023-06-01T04:00:10;15.00;86.10
3678;DHT22;1855;50.934;6.958;2023-06-01T04:02:48;15.00;86.50
3678;DHT22;1855;50.934;6.958;2023-06-01T04:05:16;14.90;86.80
3678;DHT22;1855;50.934;6.958;2023-06-01T04:07:44;14.90;87.30
3678;DHT22;1855;50.934;6.958;2023-06-01T04:10:11;14.90;87.80
3678;DHT22;1855;50.934;6.958;2023-06-01T04:12:40;14.90;88.00
3678;DHT22;1855;50.934;6.958;2023-06-01T04:15:08;14.90;88.40
3678;DHT22;1855;50.934;6.958;2023-06-01T04:17:35;14.80;88.50
3678;DHT22;1855;50.934;6.958;2023-06-01T04:20:05;14.90;89.00
3678;DHT22;1855;50.934;6.958;2023-06-01T04:22:32;14.80;89.50
3678;DHT22;1855;50.934;6.958;2023-06-01T04:24:59;14.80;89.50
3678;DHT22;1855;50.934;6.958;2023-06-01T04:27:26;14.80;89.70
3678;DHT22;1855;50.934;6.958;2023-06-01T04:29:53;14.80;90.00
3678;DHT22;1855;50.934;6.958;2023-06-01T04:32:20;14.80;90.10
3678;DHT22;1855;50.934;6.958;2023-06-01T04:34:47;14.80;90.10
3678;DHT22;1855;50.934;6.958;2023-06-01T04:37:16;14.80;90.30
3678;DHT22;1855;50.934;6.958;2023-06-01T04:39:46;14.80;90.50
3678;DHT22;1855;50.934;6.958;2023-06-01T04:42:15;14.80;90.40
3678;DHT22;1855;50.934;6.958;2023-06-01T04:44:42;14.70;90.60
3678;DHT22;1855;50.934;6.958;2023-06-01T04:47:10;14.70;90.70
3678;DHT22;1855;50.934;6.958;2023-06-01T04:49:40;14.70;90.80
3678;DHT22;1855;50.934;6.958;2023-06-01T04:52:08;14.80;90.70
3678;DHT22;1855;50.934;6.958;2023-06-01T04:54:37;14.80;90.60
3678;DHT22;1855;50.934;6.958;2023-06-01T04:57:04;14.80;90.70
3678;DHT22;1855;50.934;6.958;2023-06-01T04:59:32;14.90;90.70
3678;DHT22;1855;50.934;6.958;2023-06-01T05:01:59;14.90;90.80
3678;DHT22;1855;50.934;6.958;2023-06-01T05:04:26;14.90;90.60
3678;DHT22;1855;50.934;6.958;2023-06-01T05:06:52;14.90;90.70
3678;DHT22;1855;50.934;6.958;2023-06-01T05:09:19;15.00;91.00
3678;DHT22;1855;50.934;6.958;2023-06-01T05:11:47;15.10;90.40
3678;DHT22;1855;50.934;6.958;2023-06-01T05:14:14;15.10;90.20
3678;DHT22;1855;50.934;6.958;2023-06-01T05:16:41;15.10;90.10
3678;DHT22;1855;50.934;6.958;2023-06-01T05:19:08;15.30;90.10
3678;DHT22;1855;50.934;6.958;2023-06-01T05:21:34;15.40;89.20
3678;DHT22;1855;50.934;6.958;2023-06-01T05:24:01;15.60;88.30
3678;DHT22;1855;50.934;6.958;2023-06-01T05:26:28;15.70;86.90
3678;DHT22;1855;50.934;6.958;2023-06-01T05:28:56;15.80;86.40
3678;DHT22;1855;50.934;6.958;2023-06-01T05:31:23;16.00;86.10
3678;DHT22;1855;50.934;6.958;2023-06-01T05:33:50;16.30;85.10
3678;DHT22;1855;50.934;6.958;2023-06-01T05:36:17;16.40;83.30
3678;DHT22;1855;50.934;6.958;2023-06-01T05:38:44;16.30;82.80
3678;DHT22;1855;50.934;6.958;2023-06-01T05:41:11;16.20;83.20
3678;DHT22;1855;50.934;6.958;2023-06-01T05:43:38;16.20;83.60
3678;DHT22;1855;50.934;6.958;2023-06-01T05:46:06;16.20;83.40
3678;DHT22;1855;50.934;6.958;2023-06-01T05:48:33;16.20;83.80
3678;DHT22;1855;50.934;6.958;2023-06-01T05:51:00;16.40;83.10
3678;DHT22;1855;50.934;6.958;2023-06-01T05:53:27;16.40;82.30
3678;DHT22;1855;50.934;6.958;2023-06-01T05:55:55;16.60;81.20
3678;DHT22;1855;50.934;6.958;2023-06-01T05:58:22;16.60;80.40
3678;DHT22;1855;50.934;6.958;2023-06-01T06:00:49;16.50;80.90
3678;DHT22;1855;50.934;6.958;2023-06-01T06:03:17;16.30;81.70
3678;DHT22;1855;50.934;6.958;2023-06-01T06:05:44;16.10;82.00
3678;DHT22;1855;50.934;6.958;2023-06-01T06:08:10;16.00;82.50
3678;DHT22;1855;50.934;6.958;2023-06-01T06:10:37;15.80;83.50
3678;DHT22;1855;50.934;6.958;2023-06-01T06:13:04;15.70;84.20
3678;DHT22;1855;50.934;6.958;2023-06-01T06:15:31;15.80;85.30
3678;DHT22;1855;50.934;6.958;2023-06-01T06:17:57;15.70;85.00
3678;DHT22;1855;50.934;6.958;2023-06-01T06:20:25;15.70;85.80
3678;DHT22;1855;50.934;6.958;2023-06-01T06:22:52;15.80;84.50
3678;DHT22;1855;50.934;6.958;2023-06-01T06:25:19;15.80;84.50
3678;DHT22;1855;50.934;6.958;2023-06-01T06:27:46;15.90;84.30
3678;DHT22;1855;50.934;6.958;2023-06-01T06:30:13;15.90;84.20
3678;DHT22;1855;50.934;6.958;2023-06-01T06:32:40;16.00;84.20
3678;DHT22;1855;50.934;6.958;2023-06-01T06:35:07;16.00;84.10
3678;DHT22;1855;50.934;6.958;2023-06-01T06:37:39;16.00;84.60
3678;DHT22;1855;50.934;6.958;2023-06-01T06:40:08;16.10;84.70
3678;DHT22;1855;50.934;6.958;2023-06-01T06:42:35;16.10;83.90
3678;DHT22;1855;50.934;6.958;2023-06-01T06:45:02;16.20;84.10
3678;DHT22;1855;50.934;6.958;2023-06-01T06:47:30;16.20;82.90
3678;DHT22;1855;50.934;6.958;2023-06-01T06:49:57;16.20;84.10
3678;DHT22;1855;50.934;6.958;2023-06-01T06:52:23;16.30;83.70
3678;DHT22;1855;50.934;6.958;2023-06-01T06:54:51;16.30;82.30
3678;DHT22;1855;50.934;6.958;2023-06-01T06:57:18;16.40;82.50
3678;DHT22;1855;50.934;6.958;2023-06-01T06:59:45;16.40;82.10
3678;DHT22;1855;50.934;6.958;2023-06-01T07:02:12;16.50;81.70
3678;DHT22;1855;50.934;6.958;2023-06-01T07:04:39;16.70;80.70
3678;DHT22;1855;50.934;6.958;2023-06-01T07:07:06;16.80;79.70
3678;DHT22;1855;50.934;6.958;2023-06-01T07:09:33;17.00;78.70
3678;DHT22;1855;50.934;6.958;2023-06-01T07:12:01;17.00;77.90
3678;DHT22;1855;50.934;6.958;2023-06-01T07:14:28;17.10;77.00
3678;DHT22;1855;50.934;6.958;2023-06-01T07:16:54;17.10;76.40
3678;DHT22;1855;50.934;6.958;2023-06-01T07:19:21;16.90;77.10
3678;DHT22;1855;50.934;6.958;2023-06-01T07:21:48;16.90;77.50
3678;DHT22;1855;50.934;6.958;2023-06-01T07:24:18;16.90;78.30
3678;DHT22;1855;50.934;6.958;2023-06-01T07:26:45;17.10;77.30
3678;DHT22;1855;50.934;6.958;2023-06-01T07:29:13;17.30;76.00
3678;DHT22;1855;50.934;6.958;2023-06-01T07:31:40;17.50;74.90
3678;DHT22;1855;50.934;6.958;2023-06-01T07:34:07;17.60;74.00
3678;DHT22;1855;50.934;6.958;2023-06-01T07:36:34;17.60;73.90
3678;DHT22;1855;50.934;6.958;2023-06-01T07:39:02;17.70;73.30
3678;DHT22;1855;50.934;6.958;2023-06-01T07:41:31;17.80;72.80
3678;DHT22;1855;50.934;6.958;2023-06-01T07:43:58;17.70;72.20
3678;DHT22;1855;50.934;6.958;2023-06-01T07:46:26;17.70;72.00
3678;DHT22;1855;50.934;6.958;2023-06-01T07:48:53;17.70;71.60
3678;DHT22;1855;50.934;6.958;2023-06-01T07:51:20;17.60;72.30
3678;DHT22;1855;50.934;6.958;2023-06-01T07:53:47;17.70;72.40
3678;DHT22;1855;50.934;6.958;2023-06-01T07:56:13;17.80;71.30
3678;DHT22;1855;50.934;6.958;2023-06-01T07:58:40;17.80;70.20
3678;DHT22;1855;50.934;6.958;2023-06-01T08:01:07;17.70;70.70
3678;DHT22;1855;50.934;6.958;2023-06-01T08:03:35;17.70;71.50
3678;DHT22;1855;50.934;6.958;2023-06-01T08:06:03;17.90;71.10
3678;DHT22;1855;50.934;6.958;2023-06-01T08:08:30;18.30;68.50
3678;DHT22;1855;50.934;6.958;2023-06-01T08:10:57;18.20;68.30
3678;DHT22;1855;50.934;6.958;2023-06-01T08:13:24;18.20;68.50
3678;DHT22;1855;50.934;6.958;2023-06-01T08:15:51;18.10;68.80
3678;DHT22;1855;50.934;6.958;2023-06-01T08:18:18;18.30;68.50
3678;DHT22;1855;50.934;6.958;2023-06-01T08:20:48;18.60;67.50
3678;DHT22;1855;50.934;6.958;2023-06-01T08:23:15;19.00;65.30
3678;DHT22;1855;50.934;6.958;2023-06-01T08:25:43;19.10;64.20
3678;DHT22;1855;50.934;6.958;2023-06-01T08:28:10;19.20;63.90
3678;DHT22;1855;50.934;6.958;2023-06-01T08:30:37;19.20;63.70
3678;DHT22;1855;50.934;6.958;2023-06-01T08:33:03;19.20;64.60
3678;DHT22;1855;50.934;6.958;2023-06-01T08:35:31;19.20;64.10
3678;DHT22;1855;50.934;6.958;2023-06-01T08:38:00;19.20;63.30
3678;DHT22;1855;50.934;6.958;2023-06-01T08:40:27;19.20;63.30
3678;DHT22;1855;50.934;6.958;2023-06-01T08:42:59;19.30;63.30
3678;DHT22;1855;50.934;6.958;2023-06-01T08:45:26;19.30;62.50
3678;DHT22;1855;50.934;6.958;2023-06-01T08:47:53;19.40;61.90
3678;DHT22;1855;50.934;6.958;2023-06-01T08:50:20;19.40;60.90
3678;DHT22;1855;50.934;6.958;2023-06-01T08:52:47;19.10;61.40
3678;DHT22;1855;50.934;6.958;2023-06-01T08:55:16;19.10;62.10
3678;DHT22;1855;50.934;6.958;2023-06-01T08:57:43;19.20;62.20
3678;DHT22;1855;50.934;6.958;2023-06-01T09:00:12;19.20;62.00
3678;DHT22;1855;50.934;6.958;2023-06-01T09:02:39;19.40;60.40
3678;DHT22;1855;50.934;6.958;2023-06-01T09:05:08;19.30;61.10
3678;DHT22;1855;50.934;6.958;2023-06-01T09:07:35;19.40;61.30
3678;DHT22;1855;50.934;6.958;2023-06-01T09:10:02;19.60;61.20
3678;DHT22;1855;50.934;6.958;2023-06-01T09:12:30;19.80;60.30
3678;DHT22;1855;50.934;6.958;2023-06-01T09:15:09;20.10;59.70
3678;DHT22;1855;50.934;6.958;2023-06-01T09:17:37;20.40;58.30
3678;DHT22;1855;50.934;6.958;2023-06-01T09:20:06;20.60;56.60
3678;DHT22;1855;50.934;6.958;2023-06-01T09:22:42;20.80;54.40
3678;DHT22;1855;50.934;6.958;2023-06-01T09:25:10;20.80;54.50
3678;DHT22;1855;50.934;6.958;2023-06-01T09:27:49;20.90;53.50
3678;DHT22;1855;50.934;6.958;2023-06-01T09:30:18;20.90;52.60
3678;DHT22;1855;50.934;6.958;2023-06-01T09:32:45;20.90;51.70
3678;DHT22;1855;50.934;6.958;2023-06-01T09:35:16;21.00;52.40
3678;DHT22;1855;50.934;6.958;2023-06-01T09:37:54;21.20;51.60
3678;DHT22;1855;50.934;6.958;2023-06-01T09:40:21;21.50;51.10
3678;DHT22;1855;50.934;6.958;2023-06-01T09:42:49;21.80;49.20
3678;DHT22;1855;50.934;6.958;2023-06-01T09:45:19;22.00;48.20
3678;DHT22;1855;50.934;6.958;2023-06-01T09:47:46;22.00;48.20
3678;DHT22;1855;50.934;6.958;2023-06-01T09:50:32;22.00;47.90
3678;DHT22;1855;50.934;6.958;2023-06-01T09:52:59;21.80;48.10
3678;DHT22;1855;50.934;6.958;2023-06-01T09:55:26;21.90;47.50
3678;DHT22;1855;50.934;6.958;2023-06-01T09:58:18;21.90;47.70
3678;DHT22;1855;50.934;6.958;2023-06-01T10:00:46;22.10;48.00
3678;DHT22;1855;50.934;6.958;2023-06-01T10:03:13;22.20;47.10
3678;DHT22;1855;50.934;6.958;2023-06-01T10:05:42;22.40;46.50
3678;DHT22;1855;50.934;6.958;2023-06-01T10:08:10;22.70;45.40
3678;DHT22;1855;50.934;6.958;2023-06-01T10:10:38;22.90;43.00
3678;DHT22;1855;50.934;6.958;2023-06-01T10:13:05;22.80;42.60
3678;DHT22;1855;50.934;6.958;2023-06-01T10:15:33;22.80;44.10
3678;DHT22;1855;50.934;6.958;2023-06-01T10:18:02;22.90;42.10
3678;DHT22;1855;50.934;6.958;2023-06-01T10:20:31;23.10;42.50
3678;DHT22;1855;50.934;6.958;2023-06-01T10:22:59;23.40;41.60
3678;DHT22;1855;50.934;6.958;2023-06-01T10:25:29;23.70;40.50
3678;DHT22;1855;50.934;6.958;2023-06-01T10:27:59;23.80;39.80
3678;DHT22;1855;50.934;6.958;2023-06-01T10:30:27;23.90;39.90
3678;DHT22;1855;50.934;6.958;2023-06-01T10:32:55;24.00;39.30
3678;DHT22;1855;50.934;6.958;2023-06-01T10:38:26;23.90;38.50
3678;DHT22;1855;50.934;6.958;2023-06-01T10:40:52;23.90;37.90
3678;DHT22;1855;50.934;6.958;2023-06-01T10:43:39;23.80;38.60
3678;DHT22;1855;50.934;6.958;2023-06-01T10:46:37;23.90;39.00
3678;DHT22;1855;50.934;6.958;2023-06-01T10:49:05;24.00;39.50
3678;DHT22;1855;50.934;6.958;2023-06-01T10:51:33;24.20;40.00
3678;DHT22;1855;50.934;6.958;2023-06-01T10:57:19;24.60;37.60
3678;DHT22;1855;50.934;6.958;2023-06-01T11:00:08;24.90;38.60
3678;DHT22;1855;50.934;6.958;2023-06-01T11:02:43;25.00;38.00
3678;DHT22;1855;50.934;6.958;2023-06-01T11:05:37;25.10;37.30
3678;DHT22;1855;50.934;6.958;2023-06-01T11:08:06;25.30;37.70
3678;DHT22;1855;50.934;6.958;2023-06-01T11:10:55;25.40;36.90
3678;DHT22;1855;50.934;6.958;2023-06-01T11:13:25;25.40;36.50
3678;DHT22;1855;50.934;6.958;2023-06-01T11:16:27;25.30;36.40
3678;DHT22;1855;50.934;6.958;2023-06-01T11:18:54;25.30;37.20
3678;DHT22;1855;50.934;6.958;2023-06-01T11:21:26;25.30;36.70
3678;DHT22;1855;50.934;6.958;2023-06-01T11:23:54;25.40;37.50
3678;DHT22;1855;50.934;6.958;2023-06-01T11:26:23;25.40;36.00
3678;DHT22;1855;50.934;6.958;2023-06-01T11:28:52;25.50;36.10
3678;DHT22;1855;50.934;6.958;2023-06-01T11:31:19;25.60;35.70
3678;DHT22;1855;50.934;6.958;2023-06-01T11:33:49;25.80;35.50
3678;DHT22;1855;50.934;6.958;2023-06-01T11:36:18;26.00;34.70
3678;DHT22;1855;50.934;6.958;2023-06-01T11:38:47;25.80;34.60
3678;DHT22;1855;50.934;6.958;2023-06-01T11:41:13;25.70;34.60
3678;DHT22;1855;50.934;6.958;2023-06-01T11:43:40;25.70;34.70
3678;DHT22;1855;50.934;6.958;2023-06-01T11:46:08;25.60;35.00
3678;DHT22;1855;50.934;6.958;2023-06-01T11:48:36;25.80;34.80
3678;DHT22;1855;50.934;6.958;2023-06-01T11:51:03;26.30;35.00
3678;DHT22;1855;50.934;6.958;2023-06-01T11:53:31;26.60;34.10
3678;DHT22;1855;50.934;6.958;2023-06-01T11:55:59;26.70;35.50
3678;DHT22;1855;50.934;6.958;2023-06-01T11:58:29;26.80;35.10
3678;DHT22;1855;50.934;6.958;2023-06-01T12:00:57;26.80;34.20
3678;DHT22;1855;50.934;6.958;2023-06-01T12:03:24;26.90;33.20
3678;DHT22;1855;50.934;6.958;2023-06-01T12:05:51;26.80;32.90
3678;DHT22;1855;50.934;6.958;2023-06-01T12:08:20;26.70;33.10
3678;DHT22;1855;50.934;6.958;2023-06-01T12:10:48;26.50;32.80
3678;DHT22;1855;50.934;6.958;2023-06-01T12:13:19;26.40;33.30
3678;DHT22;1855;50.934;6.958;2023-06-01T12:15:46;26.60;34.30
3678;DHT22;1855;50.934;6.958;2023-06-01T12:18:13;26.80;33.20
3678;DHT22;1855;50.934;6.958;2023-06-01T12:20:40;27.00;32.90
3678;DHT22;1855;50.934;6.958;2023-06-01T12:23:16;27.40;32.70
3678;DHT22;1855;50.934;6.958;2023-06-01T12:25:49;27.60;33.30
3678;DHT22;1855;50.934;6.958;2023-06-01T12:28:18;27.60;32.40
3678;DHT22;1855;50.934;6.958;2023-06-01T12:30:47;27.50;31.50
3678;DHT22;1855;50.934;6.958;2023-06-01T12:33:31;27.30;31.00
3678;DHT22;1855;50.934;6.958;2023-06-01T12:35:59;27.30;32.20
3678;DHT22;1855;50.934;6.958;2023-06-01T12:38:26;27.40;31.00
3678;DHT22;1855;50.934;6.958;2023-06-01T12:41:06;27.20;29.80
3678;DHT22;1855;50.934;6.958;2023-06-01T12:43:35;27.10;31.40
3678;DHT22;1855;50.934;6.958;2023-06-01T12:46:03;27.20;31.90
3678;DHT22;1855;50.934;6.958;2023-06-01T12:48:31;27.60;32.10
3678;DHT22;1855;50.934;6.958;2023-06-01T12:50:58;28.20;30.90
3678;DHT22;1855;50.934;6.958;2023-06-01T12:53:26;28.40;30.00
3678;DHT22;1855;50.934;6.958;2023-06-01T12:55:52;28.80;29.90
3678;DHT22;1855;50.934;6.958;2023-06-01T12:58:19;29.20;30.30
3678;DHT22;1855;50.934;6.958;2023-06-01T13:00:47;29.60;30.90
3678;DHT22;1855;50.934;6.958;2023-06-01T13:03:15;29.70;29.10
3678;DHT22;1855;50.934;6.958;2023-06-01T13:05:42;29.60;29.90
3678;DHT22;1855;50.934;6.958;2023-06-01T13:08:11;29.30;29.80
3678;DHT22;1855;50.934;6.958;2023-06-01T13:10:37;28.80;30.10
3678;DHT22;1855;50.934;6.958;2023-06-01T13:13:04;28.60;30.30
3678;DHT22;1855;50.934;6.958;2023-06-01T13:15:31;28.40;30.00
3678;DHT22;1855;50.934;6.958;2023-06-01T13:17:59;28.10;31.30
3678;DHT22;1855;50.934;6.958;2023-06-01T13:20:26;28.00;31.30
3678;DHT22;1855;50.934;6.958;2023-06-01T13:22:54;28.00;31.40
3678;DHT22;1855;50.934;6.958;2023-06-01T13:25:21;27.90;31.40
3678;DHT22;1855;50.934;6.958;2023-06-01T13:27:47;27.70;31.50
3678;DHT22;1855;50.934;6.958;2023-06-01T13:30:14;27.50;31.50
3678;DHT22;1855;50.934;6.958;2023-06-01T13:32:41;27.20;31.40
3678;DHT22;1855;50.934;6.958;2023-06-01T13:35:10;26.70;31.60
3678;DHT22;1855;50.934;6.958;2023-06-01T13:37:37;26.60;32.60
3678;DHT22;1855;50.934;6.958;2023-06-01T13:40:05;26.60;32.90
3678;DHT22;1855;50.934;6.958;2023-06-01T13:42:32;26.80;32.60
3678;DHT22;1855;50.934;6.958;2023-06-01T13:44:59;27.00;31.80
3678;DHT22;1855;50.934;6.958;2023-06-01T13:47:25;27.10;31.60
3678;DHT22;1855;50.934;6.958;2023-06-01T13:49:52;27.20;32.40
3678;DHT22;1855;50.934;6.958;2023-06-01T13:52:20;27.20;31.90
3678;DHT22;1855;50.934;6.958;2023-06-01T13:54:50;27.30;31.60
3678;DHT22;1855;50.934;6.958;2023-06-01T13:57:18;27.40;31.60
3678;DHT22;1855;50.934;6.958;2023-06-01T13:59:45;27.40;31.30
3678;DHT22;1855;50.934;6.958;2023-06-01T14:02:11;27.50;32.00
3678;DHT22;1855;50.934;6.958;2023-06-01T14:04:38;27.50;31.20
3678;DHT22;1855;50.934;6.958;2023-06-01T14:07:05;27.60;30.60
3678;DHT22;1855;50.934;6.958;2023-06-01T14:09:33;27.60;30.80
3678;DHT22;1855;50.934;6.958;2023-06-01T14:12:00;27.60;31.40
3678;DHT22;1855;50.934;6.958;2023-06-01T14:14:27;27.60;31.60
3678;DHT22;1855;50.934;6.958;2023-06-01T14:16:54;27.60;31.70
3678;DHT22;1855;50.934;6.958;2023-06-01T14:19:21;27.60;31.50
3678;DHT22;1855;50.934;6.958;2023-06-01T14:21:47;27.60;31.40
3678;DHT22;1855;50.934;6.958;2023-06-01T14:24:14;27.60;31.50
3678;DHT22;1855;50.934;6.958;2023-06-01T14:26:42;27.70;31.80
3678;DHT22;1855;50.934;6.958;2023-06-01T14:29:09;27.60;31.20
3678;DHT22;1855;50.934;6.958;2023-06-01T14:31:35;27.70;32.20
3678;DHT22;1855;50.934;6.958;2023-06-01T14:34:02;27.70;31.90
3678;DHT22;1855;50.934;6.958;2023-06-01T14:36:29;27.60;31.80
3678;DHT22;1855;50.934;6.958;2023-06-01T14:38:57;27.60;31.90
3678;DHT22;1855;50.934;6.958;2023-06-01T14:41:23;27.50;32.50
3678;DHT22;1855;50.934;6.958;2023-06-01T14:43:52;27.50;32.60
3678;DHT22;1855;50.934;6.958;2023-06-01T14:46:19;27.40;32.80
3678;DHT22;1855;50.934;6.958;2023-06-01T14:48:47;27.40;32.60
3678;DHT22;1855;50.934;6.958;2023-06-01T14:51:13;27.30;32.80
3678;DHT22;1855;50.934;6.958;2023-06-01T14:53:40;27.10;32.60
3678;DHT22;1855;50.934;6.958;2023-06-01T14:56:07;26.80;33.00
3678;DHT22;1855;50.934;6.958;2023-06-01T14:58:34;26.50;34.40
3678;DHT22;1855;50.934;6.958;2023-06-01T15:01:02;26.30;33.90
3678;DHT22;1855;50.934;6.958;2023-06-01T15:03:29;26.00;33.20
3678;DHT22;1855;50.934;6.958;2023-06-01T15:05:56;25.70;33.50
3678;DHT22;1855;50.934;6.958;2023-06-01T15:08:22;25.50;33.30
3678;DHT22;1855;50.934;6.958;2023-06-01T15:10:52;25.40;34.50
3678;DHT22;1855;50.934;6.958;2023-06-01T15:13:19;25.30;35.40
3678;DHT22;1855;50.934;6.958;2023-06-01T15:15:45;25.30;35.40
3678;DHT22;1855;50.934;6.958;2023-06-01T15:18:13;25.20;34.50
3678;DHT22;1855;50.934;6.958;2023-06-01T15:20:40;25.20;34.20
3678;DHT22;1855;50.934;6.958;2023-06-01T15:23:08;25.10;33.90
3678;DHT22;1855;50.934;6.958;2023-06-01T15:25:35;25.00;35.90
3678;DHT22;1855;50.934;6.958;2023-06-01T15:28:02;25.00;36.80
3678;DHT22;1855;50.934;6.958;2023-06-01T15:30:28;25.10;36.00
3678;DHT22;1855;50.934;6.958;2023-06-01T15:32:58;25.10;37.30
3678;DHT22;1855;50.934;6.958;2023-06-01T15:35:26;25.20;35.70
3678;DHT22;1855;50.934;6.958;2023-06-01T15:37:52;25.20;36.30
3678;DHT22;1855;50.934;6.958;2023-06-01T15:40:19;25.20;36.90
3678;DHT22;1855;50.934;6.958;2023-06-01T15:42:46;25.20;36.10
3678;DHT22;1855;50.934;6.958;2023-06-01T15:45:13;25.20;36.30
3678;DHT22;1855;50.934;6.958;2023-06-01T15:47:40;25.60;35.40
3678;DHT22;1855;50.934;6.958;2023-06-01T15:50:08;26.00;33.90
3678;DHT22;1855;50.934;6.958;2023-06-01T15:52:36;26.50;33.90
3678;DHT22;1855;50.934;6.958;2023-06-01T15:55:03;27.10;32.80
3678;DHT22;1855;50.934;6.958;2023-06-01T15:57:30;27.40;35.10
3678;DHT22;1855;50.934;6.958;2023-06-01T15:59:57;27.20;32.90
3678;DHT22;1855;50.934;6.958;2023-06-01T16:02:23;27.00;34.70
3678;DHT22;1855;50.934;6.958;2023-06-01T16:04:50;26.80;34.90
3678;DHT22;1855;50.934;6.958;2023-06-01T16:07:17;26.80;34.90
3678;DHT22;1855;50.934;6.958;2023-06-01T16:09:45;27.00;34.70
3678;DHT22;1855;50.934;6.958;2023-06-01T16:12:12;27.10;33.30
3678;DHT22;1855;50.934;6.958;2023-06-01T16:14:39;27.20;33.00